Columbus, Mississippi
Current Conditions -  °F | °C
As of 9:45 AM on Monday 24 Nov 2014 (Local Time) from KGTR Reporting Station
Broken Clouds Broken Clouds  
Wind Chill: 55°   Ceiling: 2900
Heat Index: 55°   Visibility: 10mi
Dew Point: 45°   Wind: 10mph
Humidity: 67%   Direction: 290°WNW
Pressure: 29.88"   Gusts: 16mph
Location:  33.5°N, 88.43°W
Report Text: KGTR 241545Z 29009G14KT 10SM BKN029 13/07 A2988
Loading
Personal Weather Stations






























Interactive Weather Map New forecast layout! Learn more

10-Day Weather Forecast

Advertisements
Track Severe Weather on mobile